sensor_id;sensor_type;location;lat;lon;timestamp;P1;durP1;ratioP1;P2;durP2;ratioP2
5052;SDS011;2545;50.892;5.740;2023-06-22T00:00:50;5.73;;;3.90;;
5052;SDS011;2545;50.892;5.740;2023-06-22T00:03:19;7.57;;;4.07;;
5052;SDS011;2545;50.892;5.740;2023-06-22T00:05:46;5.70;;;4.00;;
5052;SDS011;2545;50.892;5.740;2023-06-22T00:08:12;6.00;;;3.97;;
5052;SDS011;2545;50.892;5.740;2023-06-22T00:10:38;4.50;;;3.70;;
5052;SDS011;2545;50.892;5.740;2023-06-22T00:13:04;6.73;;;3.87;;
5052;SDS011;2545;50.892;5.740;2023-06-22T00:15:30;5.17;;;4.23;;
5052;SDS011;2545;50.892;5.740;2023-06-22T00:17:55;6.33;;;4.10;;
5052;SDS011;2545;50.892;5.740;2023-06-22T00:20:22;8.73;;;4.37;;
5052;SDS011;2545;50.892;5.740;2023-06-22T00:22:48;8.27;;;4.03;;
5052;SDS011;2545;50.892;5.740;2023-06-22T00:25:13;6.40;;;4.33;;
5052;SDS011;2545;50.892;5.740;2023-06-22T00:27:38;8.90;;;4.30;;
5052;SDS011;2545;50.892;5.740;2023-06-22T00:30:04;8.80;;;4.00;;
5052;SDS011;2545;50.892;5.740;2023-06-22T00:32:29;8.27;;;4.53;;
5052;SDS011;2545;50.892;5.740;2023-06-22T00:34:55;7.53;;;4.37;;
5052;SDS011;2545;50.892;5.740;2023-06-22T00:37:20;5.57;;;4.23;;
5052;SDS011;2545;50.892;5.740;2023-06-22T00:39:50;6.57;;;4.50;;
5052;SDS011;2545;50.892;5.740;2023-06-22T00:42:16;4.90;;;3.93;;
5052;SDS011;2545;50.892;5.740;2023-06-22T00:44:41;8.57;;;4.43;;
5052;SDS011;2545;50.892;5.740;2023-06-22T00:47:07;4.47;;;3.60;;
5052;SDS011;2545;50.892;5.740;2023-06-22T00:49:32;6.30;;;4.17;;
5052;SDS011;2545;50.892;5.740;2023-06-22T00:51:58;6.90;;;3.80;;
5052;SDS011;2545;50.892;5.740;2023-06-22T00:54:24;7.43;;;3.80;;
5052;SDS011;2545;50.892;5.740;2023-06-22T00:56:53;4.40;;;3.23;;
5052;SDS011;2545;50.892;5.740;2023-06-22T00:59:21;6.30;;;4.20;;
5052;SDS011;2545;50.892;5.740;2023-06-22T01:01:46;6.83;;;3.97;;
5052;SDS011;2545;50.892;5.740;2023-06-22T01:04:12;6.67;;;4.83;;
5052;SDS011;2545;50.892;5.740;2023-06-22T01:07:02;7.50;;;3.70;;
5052;SDS011;2545;50.892;5.740;2023-06-22T01:10:07;6.13;;;4.00;;
5052;SDS011;2545;50.892;5.740;2023-06-22T01:12:40;9.17;;;4.23;;
5052;SDS011;2545;50.892;5.740;2023-06-22T01:15:18;6.20;;;3.53;;
5052;SDS011;2545;50.892;5.740;2023-06-22T01:17:48;8.27;;;4.00;;
5052;SDS011;2545;50.892;5.740;2023-06-22T01:20:17;7.73;;;3.50;;
5052;SDS011;2545;50.892;5.740;2023-06-22T01:25:45;6.80;;;4.60;;
5052;SDS011;2545;50.892;5.740;2023-06-22T01:31:03;6.37;;;4.00;;
5052;SDS011;2545;50.892;5.740;2023-06-22T01:33:31;8.57;;;5.30;;
5052;SDS011;2545;50.892;5.740;2023-06-22T01:35:59;10.00;;;4.83;;
5052;SDS011;2545;50.892;5.740;2023-06-22T01:38:25;11.50;;;4.30;;
5052;SDS011;2545;50.892;5.740;2023-06-22T01:40:52;6.13;;;4.70;;
5052;SDS011;2545;50.892;5.740;2023-06-22T01:43:19;8.43;;;6.23;;
5052;SDS011;2545;50.892;5.740;2023-06-22T01:45:48;9.17;;;5.80;;
5052;SDS011;2545;50.892;5.740;2023-06-22T01:48:14;12.53;;;6.70;;
5052;SDS011;2545;50.892;5.740;2023-06-22T01:50:40;9.00;;;5.90;;
5052;SDS011;2545;50.892;5.740;2023-06-22T01:53:06;12.93;;;7.37;;
5052;SDS011;2545;50.892;5.740;2023-06-22T01:55:32;14.50;;;6.90;;
5052;SDS011;2545;50.892;5.740;2023-06-22T01:57:57;11.40;;;6.93;;
5052;SDS011;2545;50.892;5.740;2023-06-22T02:00:22;11.10;;;6.70;;
5052;SDS011;2545;50.892;5.740;2023-06-22T02:05:22;8.83;;;6.10;;
5052;SDS011;2545;50.892;5.740;2023-06-22T02:07:56;12.77;;;6.90;;
5052;SDS011;2545;50.892;5.740;2023-06-22T02:10:43;8.57;;;6.33;;
5052;SDS011;2545;50.892;5.740;2023-06-22T02:13:11;13.90;;;8.13;;
5052;SDS011;2545;50.892;5.740;2023-06-22T02:15:38;11.73;;;8.37;;
5052;SDS011;2545;50.892;5.740;2023-06-22T02:18:04;13.50;;;8.73;;
5052;SDS011;2545;50.892;5.740;2023-06-22T02:20:30;17.80;;;8.30;;
5052;SDS011;2545;50.892;5.740;2023-06-22T02:22:55;11.40;;;9.23;;
5052;SDS011;2545;50.892;5.740;2023-06-22T02:25:20;22.63;;;8.83;;
5052;SDS011;2545;50.892;5.740;2023-06-22T02:27:46;14.57;;;10.10;;
5052;SDS011;2545;50.892;5.740;2023-06-22T02:30:11;14.33;;;10.87;;
5052;SDS011;2545;50.892;5.740;2023-06-22T02:32:37;18.27;;;10.23;;
5052;SDS011;2545;50.892;5.740;2023-06-22T02:35:07;19.97;;;10.90;;
5052;SDS011;2545;50.892;5.740;2023-06-22T02:37:34;16.17;;;11.00;;
5052;SDS011;2545;50.892;5.740;2023-06-22T02:40:04;14.77;;;10.87;;
5052;SDS011;2545;50.892;5.740;2023-06-22T02:42:31;14.97;;;11.10;;
5052;SDS011;2545;50.892;5.740;2023-06-22T02:44:57;17.17;;;11.57;;
5052;SDS011;2545;50.892;5.740;2023-06-22T02:47:22;17.17;;;12.20;;
5052;SDS011;2545;50.892;5.740;2023-06-22T02:49:48;18.33;;;12.40;;
5052;SDS011;2545;50.892;5.740;2023-06-22T02:52:13;16.57;;;12.53;;
5052;SDS011;2545;50.892;5.740;2023-06-22T02:54:38;28.73;;;13.10;;
5052;SDS011;2545;50.892;5.740;2023-06-22T02:57:04;24.50;;;13.07;;
5052;SDS011;2545;50.892;5.740;2023-06-22T02:59:30;16.90;;;12.07;;
5052;SDS011;2545;50.892;5.740;2023-06-22T03:01:55;21.47;;;12.97;;
5052;SDS011;2545;50.892;5.740;2023-06-22T03:04:21;16.50;;;12.80;;
5052;SDS011;2545;50.892;5.740;2023-06-22T03:06:46;18.00;;;13.07;;
5052;SDS011;2545;50.892;5.740;2023-06-22T03:09:16;17.57;;;14.73;;
5052;SDS011;2545;50.892;5.740;2023-06-22T03:11:41;20.00;;;13.80;;
5052;SDS011;2545;50.892;5.740;2023-06-22T03:14:07;26.17;;;14.73;;
5052;SDS011;2545;50.892;5.740;2023-06-22T03:16:33;21.17;;;14.10;;
5052;SDS011;2545;50.892;5.740;2023-06-22T03:18:58;23.80;;;14.07;;
5052;SDS011;2545;50.892;5.740;2023-06-22T03:21:27;20.57;;;13.73;;
5052;SDS011;2545;50.892;5.740;2023-06-22T03:23:53;20.67;;;12.87;;
5052;SDS011;2545;50.892;5.740;2023-06-22T03:26:19;22.50;;;14.70;;
5052;SDS011;2545;50.892;5.740;2023-06-22T03:28:45;30.67;;;15.33;;
5052;SDS011;2545;50.892;5.740;2023-06-22T03:31:10;23.83;;;13.63;;
5052;SDS011;2545;50.892;5.740;2023-06-22T03:33:35;18.70;;;14.70;;
5052;SDS011;2545;50.892;5.740;2023-06-22T03:36:01;21.77;;;15.70;;
5052;SDS011;2545;50.892;5.740;2023-06-22T03:38:27;22.20;;;15.83;;
5052;SDS011;2545;50.892;5.740;2023-06-22T03:40:52;25.13;;;15.50;;
5052;SDS011;2545;50.892;5.740;2023-06-22T03:43:18;26.53;;;16.03;;
5052;SDS011;2545;50.892;5.740;2023-06-22T03:45:43;23.50;;;15.50;;
5052;SDS011;2545;50.892;5.740;2023-06-22T03:48:10;23.47;;;15.47;;
5052;SDS011;2545;50.892;5.740;2023-06-22T03:50:36;28.03;;;17.87;;
5052;SDS011;2545;50.892;5.740;2023-06-22T03:53:01;25.40;;;17.90;;
5052;SDS011;2545;50.892;5.740;2023-06-22T03:55:27;24.80;;;17.47;;
5052;SDS011;2545;50.892;5.740;2023-06-22T03:57:53;34.53;;;17.00;;
5052;SDS011;2545;50.892;5.740;2023-06-22T04:00:21;25.30;;;17.27;;
5052;SDS011;2545;50.892;5.740;2023-06-22T04:02:47;27.23;;;17.30;;
5052;SDS011;2545;50.892;5.740;2023-06-22T04:05:12;20.10;;;15.10;;
5052;SDS011;2545;50.892;5.740;2023-06-22T04:07:38;34.47;;;14.30;;
5052;SDS011;2545;50.892;5.740;2023-06-22T04:10:04;18.57;;;13.63;;
5052;SDS011;2545;50.892;5.740;2023-06-22T04:12:30;25.33;;;14.67;;
5052;SDS011;2545;50.892;5.740;2023-06-22T04:14:55;37.90;;;15.10;;
5052;SDS011;2545;50.892;5.740;2023-06-22T04:17:21;19.17;;;15.37;;
5052;SDS011;2545;50.892;5.740;2023-06-22T04:19:46;21.57;;;14.23;;
5052;SDS011;2545;50.892;5.740;2023-06-22T04:22:11;19.90;;;13.90;;
5052;SDS011;2545;50.892;5.740;2023-06-22T04:24:37;20.93;;;13.67;;
5052;SDS011;2545;50.892;5.740;2023-06-22T04:27:02;22.47;;;14.40;;
5052;SDS011;2545;50.892;5.740;2023-06-22T04:29:31;21.77;;;14.50;;
5052;SDS011;2545;50.892;5.740;2023-06-22T04:31:57;20.83;;;14.87;;
5052;SDS011;2545;50.892;5.740;2023-06-22T04:34:28;18.73;;;13.70;;
5052;SDS011;2545;50.892;5.740;2023-06-22T04:36:54;18.67;;;14.90;;
5052;SDS011;2545;50.892;5.740;2023-06-22T04:39:20;20.40;;;14.60;;
5052;SDS011;2545;50.892;5.740;2023-06-22T04:41:45;20.50;;;14.20;;
5052;SDS011;2545;50.892;5.740;2023-06-22T04:44:14;27.87;;;15.27;;
5052;SDS011;2545;50.892;5.740;2023-06-22T04:46:49;26.43;;;14.90;;
5052;SDS011;2545;50.892;5.740;2023-06-22T04:49:18;26.70;;;14.50;;
5052;SDS011;2545;50.892;5.740;2023-06-22T04:51:45;24.63;;;15.20;;
5052;SDS011;2545;50.892;5.740;2023-06-22T04:54:10;22.00;;;15.40;;
5052;SDS011;2545;50.892;5.740;2023-06-22T04:56:36;30.03;;;15.60;;
5052;SDS011;2545;50.892;5.740;2023-06-22T04:59:02;30.80;;;15.43;;
5052;SDS011;2545;50.892;5.740;2023-06-22T05:01:28;25.10;;;15.73;;
5052;SDS011;2545;50.892;5.740;2023-06-22T05:03:56;25.03;;;16.87;;
5052;SDS011;2545;50.892;5.740;2023-06-22T05:06:22;21.00;;;14.87;;
5052;SDS011;2545;50.892;5.740;2023-06-22T05:08:51;29.50;;;16.03;;
5052;SDS011;2545;50.892;5.740;2023-06-22T05:11:22;23.50;;;15.23;;
5052;SDS011;2545;50.892;5.740;2023-06-22T05:13:48;21.30;;;15.00;;
5052;SDS011;2545;50.892;5.740;2023-06-22T05:16:13;19.70;;;15.37;;
5052;SDS011;2545;50.892;5.740;2023-06-22T05:18:39;19.23;;;15.57;;
5052;SDS011;2545;50.892;5.740;2023-06-22T05:21:04;25.07;;;16.73;;
5052;SDS011;2545;50.892;5.740;2023-06-22T05:23:29;26.63;;;17.57;;
5052;SDS011;2545;50.892;5.740;2023-06-22T05:25:55;25.77;;;17.60;;
5052;SDS011;2545;50.892;5.740;2023-06-22T05:28:22;26.63;;;16.43;;
5052;SDS011;2545;50.892;5.740;2023-06-22T05:30:48;29.20;;;16.30;;
5052;SDS011;2545;50.892;5.740;2023-06-22T05:33:13;22.70;;;16.70;;
5052;SDS011;2545;50.892;5.740;2023-06-22T05:35:38;20.80;;;16.50;;
5052;SDS011;2545;50.892;5.740;2023-06-22T05:38:04;19.40;;;15.10;;
5052;SDS011;2545;50.892;5.740;2023-06-22T05:40:29;22.03;;;16.57;;
5052;SDS011;2545;50.892;5.740;2023-06-22T05:42:54;27.10;;;17.63;;
5052;SDS011;2545;50.892;5.740;2023-06-22T05:45:20;28.37;;;18.30;;
5052;SDS011;2545;50.892;5.740;2023-06-22T05:47:45;25.43;;;18.27;;
5052;SDS011;2545;50.892;5.740;2023-06-22T05:50:10;27.13;;;18.60;;
5052;SDS011;2545;50.892;5.740;2023-06-22T05:52:36;32.70;;;18.57;;
5052;SDS011;2545;50.892;5.740;2023-06-22T05:55:01;34.53;;;19.43;;
5052;SDS011;2545;50.892;5.740;2023-06-22T05:57:27;29.63;;;19.83;;
5052;SDS011;2545;50.892;5.740;2023-06-22T05:59:53;31.77;;;20.17;;
5052;SDS011;2545;50.892;5.740;2023-06-22T06:02:19;27.40;;;19.90;;
5052;SDS011;2545;50.892;5.740;2023-06-22T06:04:44;27.37;;;18.50;;
5052;SDS011;2545;50.892;5.740;2023-06-22T06:07:10;30.47;;;20.00;;
5052;SDS011;2545;50.892;5.740;2023-06-22T06:09:35;30.37;;;19.97;;
5052;SDS011;2545;50.892;5.740;2023-06-22T06:12:00;31.50;;;21.23;;
5052;SDS011;2545;50.892;5.740;2023-06-22T06:14:28;26.57;;;19.37;;
5052;SDS011;2545;50.892;5.740;2023-06-22T06:16:53;35.43;;;19.93;;
5052;SDS011;2545;50.892;5.740;2023-06-22T06:19:18;37.77;;;19.00;;
5052;SDS011;2545;50.892;5.740;2023-06-22T06:21:44;26.57;;;19.50;;
5052;SDS011;2545;50.892;5.740;2023-06-22T06:24:09;25.43;;;19.33;;
5052;SDS011;2545;50.892;5.740;2023-06-22T06:26:35;30.73;;;20.93;;
5052;SDS011;2545;50.892;5.740;2023-06-22T06:29:01;24.17;;;19.10;;
5052;SDS011;2545;50.892;5.740;2023-06-22T06:31:27;29.93;;;19.00;;
5052;SDS011;2545;50.892;5.740;2023-06-22T06:33:54;30.13;;;20.07;;
5052;SDS011;2545;50.892;5.740;2023-06-22T06:36:20;23.67;;;19.17;;
5052;SDS011;2545;50.892;5.740;2023-06-22T06:38:45;27.47;;;20.50;;
5052;SDS011;2545;50.892;5.740;2023-06-22T06:41:12;33.10;;;19.60;;
5052;SDS011;2545;50.892;5.740;2023-06-22T06:43:38;32.87;;;20.70;;
5052;SDS011;2545;50.892;5.740;2023-06-22T06:46:03;38.80;;;22.33;;
5052;SDS011;2545;50.892;5.740;2023-06-22T06:48:29;25.53;;;19.70;;
5052;SDS011;2545;50.892;5.740;2023-06-22T06:50:54;26.70;;;20.43;;
5052;SDS011;2545;50.892;5.740;2023-06-22T06:53:19;28.83;;;19.83;;
5052;SDS011;2545;50.892;5.740;2023-06-22T06:55:45;34.53;;;20.20;;
5052;SDS011;2545;50.892;5.740;2023-06-22T06:58:10;26.83;;;19.93;;
5052;SDS011;2545;50.892;5.740;2023-06-22T07:00:38;28.50;;;18.87;;
5052;SDS011;2545;50.892;5.740;2023-06-22T07:03:04;24.90;;;18.17;;
5052;SDS011;2545;50.892;5.740;2023-06-22T07:05:29;27.87;;;18.93;;
5052;SDS011;2545;50.892;5.740;2023-06-22T07:07:54;26.10;;;17.13;;
5052;SDS011;2545;50.892;5.740;2023-06-22T07:10:20;29.67;;;16.83;;
5052;SDS011;2545;50.892;5.740;2023-06-22T07:12:45;22.77;;;16.10;;
5052;SDS011;2545;50.892;5.740;2023-06-22T07:15:11;27.83;;;15.23;;
5052;SDS011;2545;50.892;5.740;2023-06-22T07:17:37;24.77;;;15.07;;
5052;SDS011;2545;50.892;5.740;2023-06-22T07:20:05;32.97;;;16.47;;
5052;SDS011;2545;50.892;5.740;2023-06-22T07:22:34;24.43;;;15.30;;
5052;SDS011;2545;50.892;5.740;2023-06-22T07:25:00;21.20;;;14.23;;
5052;SDS011;2545;50.892;5.740;2023-06-22T07:27:26;19.40;;;15.40;;
5052;SDS011;2545;50.892;5.740;2023-06-22T07:29:51;29.80;;;16.07;;
5052;SDS011;2545;50.892;5.740;2023-06-22T07:32:17;22.50;;;14.97;;
5052;SDS011;2545;50.892;5.740;2023-06-22T07:34:42;18.60;;;14.50;;
5052;SDS011;2545;50.892;5.740;2023-06-22T07:37:08;25.70;;;16.40;;
5052;SDS011;2545;50.892;5.740;2023-06-22T07:39:33;26.20;;;15.57;;
5052;SDS011;2545;50.892;5.740;2023-06-22T07:41:59;23.90;;;16.17;;
5052;SDS011;2545;50.892;5.740;2023-06-22T07:44:25;22.30;;;15.70;;
5052;SDS011;2545;50.892;5.740;2023-06-22T07:46:50;20.13;;;15.10;;
5052;SDS011;2545;50.892;5.740;2023-06-22T07:49:17;17.77;;;14.90;;
5052;SDS011;2545;50.892;5.740;2023-06-22T07:51:42;22.13;;;14.87;;
5052;SDS011;2545;50.892;5.740;2023-06-22T07:54:08;23.77;;;15.63;;
5052;SDS011;2545;50.892;5.740;2023-06-22T07:56:35;17.40;;;13.60;;
5052;SDS011;2545;50.892;5.740;2023-06-22T07:59:01;19.70;;;14.90;;
5052;SDS011;2545;50.892;5.740;2023-06-22T08:01:28;24.10;;;15.00;;
5052;SDS011;2545;50.892;5.740;2023-06-22T08:03:54;24.53;;;13.97;;
5052;SDS011;2545;50.892;5.740;2023-06-22T08:06:19;24.87;;;15.73;;
5052;SDS011;2545;50.892;5.740;2023-06-22T08:08:44;21.47;;;15.83;;
5052;SDS011;2545;50.892;5.740;2023-06-22T08:11:12;24.93;;;14.10;;
5052;SDS011;2545;50.892;5.740;2023-06-22T08:13:38;22.00;;;14.70;;
5052;SDS011;2545;50.892;5.740;2023-06-22T08:16:03;21.13;;;14.97;;
5052;SDS011;2545;50.892;5.740;2023-06-22T08:18:29;28.23;;;15.40;;
5052;SDS011;2545;50.892;5.740;2023-06-22T08:20:54;28.73;;;16.73;;
5052;SDS011;2545;50.892;5.740;2023-06-22T08:23:20;22.50;;;17.17;;
5052;SDS011;2545;50.892;5.740;2023-06-22T08:25:45;25.03;;;15.93;;
5052;SDS011;2545;50.892;5.740;2023-06-22T08:28:10;21.47;;;15.97;;
5052;SDS011;2545;50.892;5.740;2023-06-22T08:30:36;22.30;;;16.97;;
5052;SDS011;2545;50.892;5.740;2023-06-22T08:33:01;22.00;;;15.73;;
5052;SDS011;2545;50.892;5.740;2023-06-22T08:35:27;26.03;;;16.40;;
5052;SDS011;2545;50.892;5.740;2023-06-22T08:37:54;31.70;;;16.23;;
5052;SDS011;2545;50.892;5.740;2023-06-22T08:40:21;24.17;;;17.67;;
5052;SDS011;2545;50.892;5.740;2023-06-22T08:42:47;23.60;;;16.60;;
5052;SDS011;2545;50.892;5.740;2023-06-22T08:45:13;19.97;;;15.90;;
5052;SDS011;2545;50.892;5.740;2023-06-22T08:47:40;22.40;;;17.40;;
5052;SDS011;2545;50.892;5.740;2023-06-22T08:50:06;27.83;;;17.50;;
5052;SDS011;2545;50.892;5.740;2023-06-22T08:52:33;28.40;;;16.27;;
5052;SDS011;2545;50.892;5.740;2023-06-22T08:54:59;22.57;;;17.60;;
5052;SDS011;2545;50.892;5.740;2023-06-22T08:57:24;25.40;;;17.83;;
5052;SDS011;2545;50.892;5.740;2023-06-22T08:59:49;22.77;;;16.90;;
5052;SDS011;2545;50.892;5.740;2023-06-22T09:02:17;23.23;;;19.10;;
5052;SDS011;2545;50.892;5.740;2023-06-22T09:04:44;23.27;;;16.80;;
5052;SDS011;2545;50.892;5.740;2023-06-22T09:07:10;20.63;;;16.57;;
5052;SDS011;2545;50.892;5.740;2023-06-22T09:09:36;24.43;;;17.50;;
5052;SDS011;2545;50.892;5.740;2023-06-22T09:12:02;21.53;;;17.30;;
5052;SDS011;2545;50.892;5.740;2023-06-22T09:14:27;21.30;;;17.90;;
5052;SDS011;2545;50.892;5.740;2023-06-22T09:16:53;22.33;;;16.87;;
5052;SDS011;2545;50.892;5.740;2023-06-22T09:19:18;26.63;;;16.57;;
5052;SDS011;2545;50.892;5.740;2023-06-22T09:21:43;27.40;;;17.60;;
5052;SDS011;2545;50.892;5.740;2023-06-22T09:24:09;23.53;;;16.77;;
5052;SDS011;2545;50.892;5.740;2023-06-22T09:26:34;24.50;;;19.20;;
5052;SDS011;2545;50.892;5.740;2023-06-22T09:28:59;26.80;;;19.70;;
5052;SDS011;2545;50.892;5.740;2023-06-22T09:31:24;25.43;;;17.70;;
5052;SDS011;2545;50.892;5.740;2023-06-22T09:33:53;31.83;;;17.37;;
5052;SDS011;2545;50.892;5.740;2023-06-22T09:36:20;30.73;;;19.20;;
5052;SDS011;2545;50.892;5.740;2023-06-22T09:38:46;21.40;;;18.00;;
5052;SDS011;2545;50.892;5.740;2023-06-22T09:41:12;24.70;;;18.00;;
5052;SDS011;2545;50.892;5.740;2023-06-22T09:43:38;24.10;;;18.73;;
5052;SDS011;2545;50.892;5.740;2023-06-22T09:46:03;30.03;;;17.97;;
5052;SDS011;2545;50.892;5.740;2023-06-22T09:48:28;24.70;;;19.47;;
5052;SDS011;2545;50.892;5.740;2023-06-22T09:50:55;26.00;;;18.47;;
5052;SDS011;2545;50.892;5.740;2023-06-22T09:53:20;25.30;;;18.93;;
5052;SDS011;2545;50.892;5.740;2023-06-22T09:55:46;25.97;;;19.37;;
5052;SDS011;2545;50.892;5.740;2023-06-22T09:58:12;26.97;;;20.27;;
5052;SDS011;2545;50.892;5.740;2023-06-22T10:00:37;36.80;;;19.60;;
5052;SDS011;2545;50.892;5.740;2023-06-22T10:03:02;37.50;;;19.23;;
5052;SDS011;2545;50.892;5.740;2023-06-22T10:05:28;34.23;;;20.10;;
5052;SDS011;2545;50.892;5.740;2023-06-22T10:07:53;29.30;;;20.23;;
5052;SDS011;2545;50.892;5.740;2023-06-22T10:10:18;29.73;;;21.30;;
5052;SDS011;2545;50.892;5.740;2023-06-22T10:12:45;34.57;;;22.67;;
5052;SDS011;2545;50.892;5.740;2023-06-22T10:15:12;31.10;;;22.87;;
5052;SDS011;2545;50.892;5.740;2023-06-22T10:17:38;33.90;;;24.17;;
5052;SDS011;2545;50.892;5.740;2023-06-22T10:20:04;33.83;;;23.97;;
5052;SDS011;2545;50.892;5.740;2023-06-22T10:22:37;29.67;;;24.20;;
5052;SDS011;2545;50.892;5.740;2023-06-22T10:25:03;32.47;;;24.30;;
5052;SDS011;2545;50.892;5.740;2023-06-22T10:27:29;37.33;;;25.10;;
5052;SDS011;2545;50.892;5.740;2023-06-22T10:29:54;40.67;;;25.83;;
5052;SDS011;2545;50.892;5.740;2023-06-22T10:32:19;40.40;;;26.50;;
5052;SDS011;2545;50.892;5.740;2023-06-22T10:34:45;35.40;;;25.77;;
5052;SDS011;2545;50.892;5.740;2023-06-22T10:37:10;37.43;;;27.57;;
5052;SDS011;2545;50.892;5.740;2023-06-22T10:39:35;45.73;;;29.00;;
5052;SDS011;2545;50.892;5.740;2023-06-22T10:42:01;41.33;;;29.90;;
5052;SDS011;2545;50.892;5.740;2023-06-22T10:44:26;35.17;;;27.33;;
5052;SDS011;2545;50.892;5.740;2023-06-22T10:46:51;33.37;;;27.87;;
5052;SDS011;2545;50.892;5.740;2023-06-22T10:49:16;38.83;;;28.13;;
5052;SDS011;2545;50.892;5.740;2023-06-22T10:51:42;38.07;;;28.33;;
5052;SDS011;2545;50.892;5.740;2023-06-22T10:54:07;35.93;;;25.50;;
5052;SDS011;2545;50.892;5.740;2023-06-22T10:56:32;29.67;;;25.37;;
5052;SDS011;2545;50.892;5.740;2023-06-22T10:58:58;37.50;;;25.67;;
5052;SDS011;2545;50.892;5.740;2023-06-22T11:01:24;28.60;;;23.60;;
5052;SDS011;2545;50.892;5.740;2023-06-22T11:03:49;30.53;;;23.33;;
5052;SDS011;2545;50.892;5.740;2023-06-22T11:06:14;32.97;;;22.50;;
5052;SDS011;2545;50.892;5.740;2023-06-22T11:08:40;28.93;;;23.07;;
5052;SDS011;2545;50.892;5.740;2023-06-22T11:11:09;30.07;;;22.93;;
5052;SDS011;2545;50.892;5.740;2023-06-22T11:13:34;25.93;;;21.30;;
5052;SDS011;2545;50.892;5.740;2023-06-22T11:15:59;32.40;;;21.07;;
5052;SDS011;2545;50.892;5.740;2023-06-22T11:18:25;25.23;;;20.90;;
5052;SDS011;2545;50.892;5.740;2023-06-22T11:20:50;29.33;;;21.90;;
5052;SDS011;2545;50.892;5.740;2023-06-22T11:23:16;25.67;;;22.90;;
5052;SDS011;2545;50.892;5.740;2023-06-22T11:25:41;30.47;;;22.70;;
5052;SDS011;2545;50.892;5.740;2023-06-22T11:28:07;29.70;;;23.17;;
5052;SDS011;2545;50.892;5.740;2023-06-22T11:30:33;35.07;;;23.80;;
5052;SDS011;2545;50.892;5.740;2023-06-22T11:32:59;27.83;;;22.93;;
5052;SDS011;2545;50.892;5.740;2023-06-22T11:35:25;30.87;;;23.97;;
5052;SDS011;2545;50.892;5.740;2023-06-22T11:37:50;32.57;;;24.70;;
5052;SDS011;2545;50.892;5.740;2023-06-22T11:40:16;28.50;;;24.50;;
5052;SDS011;2545;50.892;5.740;2023-06-22T11:42:42;30.30;;;25.70;;
5052;SDS011;2545;50.892;5.740;2023-06-22T11:45:08;28.97;;;24.70;;
5052;SDS011;2545;50.892;5.740;2023-06-22T11:47:33;33.07;;;26.33;;
5052;SDS011;2545;50.892;5.740;2023-06-22T11:49:59;33.93;;;24.90;;
5052;SDS011;2545;50.892;5.740;2023-06-22T11:52:24;32.33;;;25.87;;
5052;SDS011;2545;50.892;5.740;2023-06-22T11:54:49;31.03;;;24.70;;
5052;SDS011;2545;50.892;5.740;2023-06-22T11:57:15;32.70;;;27.33;;
5052;SDS011;2545;50.892;5.740;2023-06-22T11:59:40;35.27;;;27.30;;
5052;SDS011;2545;50.892;5.740;2023-06-22T12:02:05;33.40;;;27.13;;
5052;SDS011;2545;50.892;5.740;2023-06-22T12:04:32;36.67;;;27.43;;
5052;SDS011;2545;50.892;5.740;2023-06-22T12:06:58;36.10;;;28.13;;
5052;SDS011;2545;50.892;5.740;2023-06-22T12:09:23;38.83;;;27.60;;
5052;SDS011;2545;50.892;5.740;2023-06-22T12:11:48;34.20;;;28.23;;
5052;SDS011;2545;50.892;5.740;2023-06-22T12:14:14;34.33;;;27.70;;
5052;SDS011;2545;50.892;5.740;2023-06-22T12:16:39;34.73;;;28.70;;
5052;SDS011;2545;50.892;5.740;2023-06-22T12:19:04;35.57;;;29.07;;
5052;SDS011;2545;50.892;5.740;2023-06-22T12:21:30;36.67;;;28.83;;
5052;SDS011;2545;50.892;5.740;2023-06-22T12:23:55;31.30;;;27.10;;
5052;SDS011;2545;50.892;5.740;2023-06-22T12:26:21;35.23;;;27.90;;
5052;SDS011;2545;50.892;5.740;2023-06-22T12:28:47;34.20;;;28.17;;
5052;SDS011;2545;50.892;5.740;2023-06-22T12:31:12;33.33;;;28.00;;
5052;SDS011;2545;50.892;5.740;2023-06-22T12:33:38;39.00;;;26.03;;
5052;SDS011;2545;50.892;5.740;2023-06-22T12:36:03;37.03;;;28.27;;
5052;SDS011;2545;50.892;5.740;2023-06-22T12:38:30;32.43;;;26.90;;
5052;SDS011;2545;50.892;5.740;2023-06-22T12:40:55;36.17;;;28.00;;
5052;SDS011;2545;50.892;5.740;2023-06-22T12:43:20;39.07;;;30.13;;
5052;SDS011;2545;50.892;5.740;2023-06-22T12:45:46;45.73;;;33.17;;
5052;SDS011;2545;50.892;5.740;2023-06-22T12:48:11;47.67;;;31.20;;
5052;SDS011;2545;50.892;5.740;2023-06-22T12:50:37;36.27;;;29.97;;
5052;SDS011;2545;50.892;5.740;2023-06-22T12:53:03;36.40;;;29.57;;
5052;SDS011;2545;50.892;5.740;2023-06-22T12:55:29;42.10;;;31.80;;
5052;SDS011;2545;50.892;5.740;2023-06-22T12:57:54;43.40;;;32.50;;
5052;SDS011;2545;50.892;5.740;2023-06-22T13:00:20;43.23;;;33.60;;
5052;SDS011;2545;50.892;5.740;2023-06-22T13:02:45;43.73;;;34.50;;
5052;SDS011;2545;50.892;5.740;2023-06-22T13:05:11;42.10;;;33.90;;
5052;SDS011;2545;50.892;5.740;2023-06-22T13:07:36;46.23;;;34.50;;
5052;SDS011;2545;50.892;5.740;2023-06-22T13:10:01;44.47;;;33.10;;
5052;SDS011;2545;50.892;5.740;2023-06-22T13:12:27;52.83;;;35.30;;
5052;SDS011;2545;50.892;5.740;2023-06-22T13:14:52;45.53;;;34.83;;
5052;SDS011;2545;50.892;5.740;2023-06-22T13:17:18;45.27;;;34.10;;
5052;SDS011;2545;50.892;5.740;2023-06-22T13:19:43;44.27;;;34.80;;
5052;SDS011;2545;50.892;5.740;2023-06-22T13:22:25;45.07;;;35.23;;
5052;SDS011;2545;50.892;5.740;2023-06-22T13:24:53;44.83;;;35.13;;
5052;SDS011;2545;50.892;5.740;2023-06-22T13:27:19;40.70;;;33.37;;
5052;SDS011;2545;50.892;5.740;2023-06-22T13:29:44;44.83;;;36.03;;
5052;SDS011;2545;50.892;5.740;2023-06-22T13:32:09;44.80;;;34.70;;
5052;SDS011;2545;50.892;5.740;2023-06-22T13:34:35;42.80;;;33.40;;
5052;SDS011;2545;50.892;5.740;2023-06-22T13:37:00;47.80;;;35.40;;
5052;SDS011;2545;50.892;5.740;2023-06-22T13:39:25;39.97;;;32.20;;
5052;SDS011;2545;50.892;5.740;2023-06-22T13:41:51;44.00;;;33.30;;
5052;SDS011;2545;50.892;5.740;2023-06-22T13:44:16;44.77;;;34.90;;
5052;SDS011;2545;50.892;5.740;2023-06-22T13:46:41;43.53;;;33.87;;
5052;SDS011;2545;50.892;5.740;2023-06-22T13:49:07;41.57;;;33.00;;
5052;SDS011;2545;50.892;5.740;2023-06-22T13:51:32;54.30;;;34.70;;
5052;SDS011;2545;50.892;5.740;2023-06-22T13:53:58;46.20;;;35.87;;
5052;SDS011;2545;50.892;5.740;2023-06-22T13:56:23;42.33;;;34.03;;
5052;SDS011;2545;50.892;5.740;2023-06-22T13:58:48;65.10;;;38.20;;
5052;SDS011;2545;50.892;5.740;2023-06-22T14:01:13;46.37;;;37.73;;
5052;SDS011;2545;50.892;5.740;2023-06-22T14:03:39;77.50;;;40.87;;
5052;SDS011;2545;50.892;5.740;2023-06-22T14:06:04;49.80;;;39.87;;
5052;SDS011;2545;50.892;5.740;2023-06-22T14:08:29;52.83;;;40.60;;
5052;SDS011;2545;50.892;5.740;2023-06-22T14:10:55;56.70;;;40.00;;
5052;SDS011;2545;50.892;5.740;2023-06-22T14:13:20;54.20;;;40.37;;
5052;SDS011;2545;50.892;5.740;2023-06-22T14:15:45;72.00;;;41.47;;
5052;SDS011;2545;50.892;5.740;2023-06-22T14:18:13;57.10;;;41.70;;
5052;SDS011;2545;50.892;5.740;2023-06-22T14:20:39;57.60;;;42.20;;
5052;SDS011;2545;50.892;5.740;2023-06-22T14:23:05;55.90;;;41.83;;
5052;SDS011;2545;50.892;5.740;2023-06-22T14:25:30;59.90;;;43.77;;
5052;SDS011;2545;50.892;5.740;2023-06-22T14:27:56;57.60;;;43.07;;
5052;SDS011;2545;50.892;5.740;2023-06-22T14:30:21;51.87;;;39.80;;
5052;SDS011;2545;50.892;5.740;2023-06-22T14:32:46;57.50;;;41.50;;
5052;SDS011;2545;50.892;5.740;2023-06-22T14:35:11;51.77;;;39.50;;
5052;SDS011;2545;50.892;5.740;2023-06-22T14:37:37;55.50;;;37.33;;
5052;SDS011;2545;50.892;5.740;2023-06-22T14:40:02;55.13;;;38.37;;
5052;SDS011;2545;50.892;5.740;2023-06-22T14:42:28;55.10;;;38.83;;
5052;SDS011;2545;50.892;5.740;2023-06-22T14:44:55;54.37;;;40.57;;
5052;SDS011;2545;50.892;5.740;2023-06-22T14:47:20;54.73;;;39.67;;
5052;SDS011;2545;50.892;5.740;2023-06-22T14:49:46;54.00;;;37.40;;
5052;SDS011;2545;50.892;5.740;2023-06-22T14:52:11;55.37;;;39.63;;